Latest Coastal Weather Observations for Evans Head

IDN60701

Issued at 3:21 am EST Sunday 25 June 2017 (issued every 10 minutes, with the page automatically refreshed every 10 minutes)

About coastal observations | Map of coastal stations | Coastal observations for NSW | Marine services | Other Formats
Station Details ID: 058212 Name: EVANS HEAD RAAF BOMBING RANGE AWS Lat: -29.18 Lon: 153.40 Height: 62.5 m
Data from the previous 72 hours. | See also: Recent months at Evans Head
Date/Time
EST
Temp
°C
Wind Pressure Rain since
9am
mm
Weather Cloud Vis
km
Sea
Height
m
Swell
Dir  Spd
kts
Gust
kts
hPa Trend Height
m
Period
s
Dir
25/03:00am 11.2 NNW 6 7 1018.1 - 0.0 - - - - - - -
25/02:30am 11.7 NNW 5 6 1018.2 - 0.0 - - - - - - -
25/02:00am 13.6 WNW 7 8 1018.3 - 0.0 - - - - - - -
25/01:30am 12.5 NNW 6 6 1018.1 - 0.0 - - - - - - -
25/01:00am 12.6 NNW 6 7 1018.1 - 0.0 - - - - - - -
25/12:30am 12.7 NNW 6 6 1018.2 - 0.0 - - - - - - -
25/12:00am 13.3 NW 5 6 1018.4 - 0.0 - - - - - - -
 
Date/Time
EST
Temp
°C
Wind Pressure Rain since
9am
mm
Weather Cloud Vis
km
Sea
Height
m
Swell
Dir  Spd
kts
Gust
kts
hPa Trend Height
m
Period
s
Dir
24/11:30pm 13.1 NNW 6 6 1018.6 - 0.0 - - - - - - -
24/11:00pm 13.5 N 6 7 1018.6 - 0.0 - - - - - - -
24/10:30pm 15.7 ENE 3 4 1018.6 - 0.0 - - - - - - -
24/10:00pm 16.4 ENE 4 5 1018.5 - 0.0 - - - - - - -
24/09:30pm 16.4 E 3 5 1018.2 - 0.0 - - - - - - -
24/09:00pm 16.6 ESE 4 5 1018.5 - 0.0 - - - - - - -
24/08:30pm 16.7 ESE 5 6 1018.2 - 0.0 - - - - - - -
24/08:00pm 16.8 SE 7 9 1018.1 - 0.0 - - - - - - -
24/07:30pm 17.0 SE 7 9 1017.9 - 0.0 - - - - - - -
24/07:00pm 17.1 SE 7 9 1017.6 - 0.0 - - - - - - -
24/06:30pm 17.2 SE 8 11 1017.4 - 0.0 - - - - - - -
24/06:00pm 17.2 SSE 8 10 1017.1 - 0.0 - - - - - - -
24/05:30pm 17.2 SSE 8 12 1016.7 - 0.0 - - - - - - -
24/05:00pm 17.1 SSE 8 10 1016.4 - 0.0 - - - - - - -
24/04:30pm 17.7 SSE 7 9 1016.2 - 0.0 - - - - - - -
24/04:00pm 18.5 SSE 9 12 1016.1 - 0.0 - - - - - - -
24/03:30pm 19.5 SSE 9 12 1015.9 - 0.0 - - - - - - -
24/03:00pm 20.1 S 9 13 1015.8 - 0.0 - - - - - - -
24/02:30pm 20.6 SSE 9 12 1015.7 - 0.0 - - - - - - -
24/02:00pm 21.1 SSE 9 13 1015.6 - 0.0 - - - - - - -
24/01:30pm 21.4 S 9 13 1015.7 - 0.0 - - - - - - -
24/01:00pm 20.9 S 12 16 1015.8 - 0.0 - - - - - - -
24/12:30pm 21.8 S 10 13 1016.0 - 0.0 - - - - - - -
24/12:00pm 21.4 SSW 7 11 1016.5 - 0.0 - - - - - - -
24/11:30am 21.1 SW 9 13 1017.1 - 0.0 - - - - - - -
24/11:00am 20.2 WSW 6 10 1017.4 - 0.0 - - - - - - -
24/10:30am 20.1 WSW 7 11 1017.5 - 0.0 - - - - - - -
24/10:00am 20.5 NW 7 11 1017.6 - 0.0 - - - - - - -
24/09:30am 18.9 NW 7 10 1017.7 - 0.0 - - - - - - -
24/09:00am 18.9 NW 7 10 1017.5 - 0.0 - - - - - - -
24/08:30am 17.6 WNW 7 9 1017.3 - 0.0 - - - - - - -
24/08:00am 16.2 WNW 7 10 1017.2 - 0.0 - - - - - - -
24/07:30am 15.1 WNW 8 11 1016.5 - 0.0 - - - - - - -
24/07:00am 14.8 NW 8 11 1016.0 - 0.0 - - - - - - -
24/06:30am 14.7 NW 8 11 1015.9 - 0.0 - - - - - - -
24/06:00am 14.5 WNW 8 11 1015.5 - 0.0 - - - - - - -
24/05:30am 14.6 NW 8 10 1015.3 - 0.0 - - - - - - -
24/05:00am 14.5 NW 8 10 1015.1 - 0.0 - - - - - - -
24/04:30am 13.7 NNW 4 6 1015.0 - 0.0 - - - - - - -
24/04:00am 13.1 NNW 5 9 1015.0 - 0.0 - - - - - - -
24/03:30am 13.4 NNW 5 9 1014.9 - 0.0 - - - - - - -
24/03:00am 13.5 NNW 6 10 1015.2 - 0.0 - - - - - - -
24/02:30am 13.5 NNW 7 11 1015.2 - 0.0 - - - - - - -
24/02:00am 13.3 N 6 9 1015.3 - 0.0 - - - - - - -
24/01:30am 12.8 NNW 7 12 1015.5 - 0.0 - - - - - - -
24/01:00am 12.8 NNW 7 10 1016.0 - 0.0 - - - - - - -
24/12:30am 13.4 N 6 7 1016.6 - 0.0 - - - - - - -
24/12:00am 14.2 NNW 7 11 1016.7 - 0.0 - - - - - - -
 
Date/Time
EST
Temp
°C
Wind Pressure Rain since
9am
mm
Weather Cloud Vis
km
Sea
Height
m
Swell
Dir  Spd
kts
Gust
kts
hPa Trend Height
m
Period
s
Dir
23/11:30pm 14.0 NNW 7 9 1016.8 - 0.0 - - - - - - -
23/11:00pm 13.8 NNW 7 9 1017.3 - 0.0 - - - - - - -
23/10:30pm 13.6 NNW 7 9 1017.7 - 0.0 - - - - - - -
23/10:00pm 13.8 NNW 7 10 1017.9 - 0.0 - - - - - - -
23/09:30pm 14.1 NNW 7 10 1017.8 - 0.0 - - - - - - -
23/09:00pm 13.6 NNW 6 8 1018.0 - 0.0 - - - - - - -
23/08:30pm 13.6 N 7 9 1018.0 - 0.0 - - - - - - -
23/08:00pm 14.1 N 7 9 1017.9 - 0.0 - - - - - - -
23/07:30pm 14.1 N 6 8 1017.9 - 0.0 - - - - - - -
23/07:00pm 14.9 N 6 8 1017.9 - 0.0 - - - - - - -
23/06:30pm 14.8 N 7 9 1017.5 - 0.0 - - - - - - -
23/06:00pm 15.2 N 6 9 1017.2 - 0.0 - - - - - - -
23/05:30pm 15.6 N 6 8 1017.0 - 0.0 - - - - - - -
23/05:00pm 17.1 N 4 5 1017.3 - 0.0 - - - - - - -
23/04:30pm 19.0 N 3 4 1017.4 - 0.0 - - - - - - -
23/04:00pm 20.1 N 4 6 1017.6 - 0.0 - - - - - - -
23/03:30pm 21.9 N 6 9 1017.6 - 0.0 - - - - - - -
23/03:00pm 21.7 NNW 5 8 1017.7 - 0.0 - - - - - - -
23/02:30pm 22.4 NNW 6 10 1017.8 - 0.0 - - - - - - -
23/02:00pm 22.4 NNW 7 12 1018.0 - 0.0 - - - - - - -
23/01:30pm 22.9 NNW 7 11 1018.4 - 0.0 - - - - - - -
23/01:00pm 22.9 NNW 5 8 1019.0 - 0.0 - - - - - - -
23/12:30pm 22.7 NNW 7 10 1019.5 - 0.0 - - - - - - -
23/12:00pm 22.0 NNW 5 7 1020.1 - 0.0 - - - - - - -
23/11:30am 20.2 W 5 8 1020.7 - 0.0 - - - - - - -
23/11:00am 20.1 NW 5 8 1021.6 - 0.0 - - - - - - -
23/10:30am 19.5 NW 5 8 1022.1 - 0.0 - - - - - - -
23/10:00am 18.8 NW 5 7 1022.4 - 0.0 - - - - - - -
23/09:30am 17.2 NW 4 6 1022.7 - 0.0 - - - - - - -
23/09:00am 16.5 NW 5 9 1022.6 - 0.0 - - - - - - -
23/08:30am 14.7 NW 4 6 1022.5 - 0.0 - - - - - - -
23/08:00am 12.2 N 2 4 1022.5 - 0.0 - - - - - - -
23/07:30am 11.5 W 3 5 1022.3 - 0.0 - - - - - - -
23/07:00am 12.2 W 5 6 1021.9 - 0.0 - - - - - - -
23/06:30am 12.2 W 4 7 1021.8 - 0.0 - - - - - - -
23/06:00am 12.6 WNW 6 9 1021.9 - 0.0 - - - - - - -
23/05:30am 12.4 WNW 6 8 1021.4 - 0.0 - - - - - - -
23/05:00am 12.6 WNW 7 9 1021.3 - 0.0 - - - - - - -
23/04:30am 12.5 WNW 6 9 1021.2 - 0.0 - - - - - - -
23/04:00am 12.9 WNW 7 9 1021.5 - 0.0 - - - - - - -
23/03:30am 13.3 WNW 6 8 1021.6 - 0.0 - - - - - - -
23/03:00am 13.4 WNW 6 8 1021.8 - 0.0 - - - - - - -
23/02:30am 13.4 WNW 7 9 1021.9 - 0.0 - - - - - - -
23/02:00am 13.4 WNW 6 8 1022.1 - 0.0 - - - - - - -
23/01:30am 13.6 W 7 10 1022.3 - 0.0 - - - - - - -
23/01:00am 13.9 W 7 9 1022.5 - 0.0 - - - - - - -
23/12:30am 14.4 W 7 9 1022.7 - 0.0 - - - - - - -
23/12:00am 15.0 WSW 7 9 1022.9 - 0.0 - - - - - - -
 
Date/Time
EST
Temp
°C
Wind Pressure Rain since
9am
mm
Weather Cloud Vis
km
Sea
Height
m
Swell
Dir  Spd
kts
Gust
kts
hPa Trend Height
m
Period
s
Dir
22/11:30pm 15.3 WSW 6 7 1023.3 - 0.0 - - - - - - -
22/11:00pm 15.4 WSW 5 7 1023.5 - 0.0 - - - - - - -
22/10:30pm 15.4 SW 6 7 1023.7 - 0.0 - - - - - - -
22/10:00pm 15.6 SW 6 8 1023.8 - 0.0 - - - - - - -
22/09:30pm 15.8 SW 6 8 1024.0 - 0.0 - - - - - - -
22/09:00pm 15.5 SW 6 9 1024.3 - 0.0 - - - - - - -
22/08:30pm 15.7 SW 7 8 1024.2 - 0.0 - - - - - - -
22/08:00pm 15.9 WSW 9 11 1024.3 - 0.0 - - - - - - -
22/07:30pm 15.8 WSW 7 8 1024.0 - 0.0 - - - - - - -
22/07:00pm 16.6 SW 6 8 1023.9 - 0.0 - - - - - - -
22/06:30pm 16.4 S 8 11 1023.9 - 0.0 - - - - - - -
22/06:00pm 15.9 S 8 12 1023.8 - 0.0 - - - - - - -
22/05:30pm 15.9 S 7 9 1023.6 - 0.0 - - - - - - -
22/05:00pm 16.5 S 7 9 1023.3 - 0.0 - - - - - - -
22/04:30pm 17.5 S 9 13 1022.9 - 0.0 - - - - - - -
22/04:00pm 18.3 S 8 11 1022.9 - 0.0 - - - - - - -
22/03:30pm 19.3 SSE 9 13 1022.7 - 0.0 - - - - - - -
22/03:00pm 19.6 SSE 10 13 1022.7 - 0.0 - - - - - - -
22/02:30pm 20.4 SSE 9 12 1022.7 - 0.0 - - - - - - -
22/02:00pm 20.6 S 9 12 1022.9 - 0.0 - - - - - - -
22/01:30pm 20.8 SSE 9 13 1022.9 - 0.0 - - - - - - -
22/01:00pm 20.7 S 11 14 1023.4 - 0.0 - - - - - - -
22/12:30pm 20.6 SSE 9 13 1023.9 - 0.0 - - - - - - -
22/12:00pm 20.4 S 9 13 1024.5 - 0.0 - - - - - - -
22/11:30am 19.9 S 10 14 1024.9 - 0.0 - - - - - - -
22/11:00am 19.6 SSW 9 15 1025.3 - 0.0 - - - - - - -
22/10:30am 18.8 SSW 9 13 1025.6 - 0.0 - - - - - - -
22/10:00am 18.2 SW 8 12 1025.9 - 0.0 - - - - - - -
22/09:30am 17.5 SSW 9 15 1025.9 - 0.0 - - - - - - -
22/09:00am 16.4 SW 9 14 1025.7 - 0.0 - - - - - - -
22/08:30am 15.3 SW 9 14 1025.6 - 0.0 - - - - - - -
22/08:00am 14.0 WSW 10 13 1025.3 - 0.0 - - - - - - -
22/07:30am 13.7 WSW 9 14 1025.0 - 0.0 - - - - - - -
22/07:00am 13.7 WSW 10 14 1024.8 - 0.0 - - - - - - -
22/06:30am 13.7 SW 10 14 1024.6 - 0.0 - - - - - - -
22/06:00am 13.7 SW 9 13 1024.2 - 0.0 - - - - - - -
22/05:30am 14.2 WSW 7 10 1024.0 - 0.0 - - - - - - -
22/05:00am 14.3 WSW 9 14 1023.8 - 0.0 - - - - - - -
22/04:30am 14.2 SW 9 15 1023.7 - 0.0 - - - - - - -
22/04:00am 14.5 SW 8 12 1023.6 - 0.0 - - - - - - -
22/03:30am 15.0 SW 9 13 1023.6 - 0.0 - - - - - - -

Other Formats:

Comma delimited format used in spreadsheet applications
http://www.bom.gov.au/fwo/IDN60701/IDN60701.94598.axf

JavaScript Object Notation format (JSON) in row-major order
http://www.bom.gov.au/fwo/IDN60701/IDN60701.94598.json